Time;durP1;ratioP1;P1;durP2;ratioP2;P2;SDS_P1;SDS_P2;PMS_P1;PMS_P2;Temp;Humidity;BMP_temperature;BMP_pressure;BME280_temperature;BME280_humidity;BME280_pressure;Samples;Min_cycle;Max_cycle;Signal;HPM_P1;HPM_P2
2021/11/05 00:00:10;;;;;;;5.10;1.13;;;8.70;99.90;;;;;;5053011;28;20295;-88
2021/11/05 00:02:37;;;;;;;6.20;1.20;;;8.70;99.90;;;;;;5053068;28;20205;-88
2021/11/05 00:05:05;;;;;;;6.57;1.03;;;8.60;99.90;;;;;;5053554;28;20205;-89
2021/11/05 00:07:32;;;;;;;7.70;1.33;;;8.60;99.90;;;;;;5052776;28;20201;-88
2021/11/05 00:10:00;;;;;;;6.87;1.80;;;8.60;99.90;;;;;;5051340;28;20618;-89
2021/11/05 00:12:27;;;;;;;7.20;2.00;;;8.60;99.90;;;;;;5051935;28;20194;-84
2021/11/05 00:14:53;;;;;;;13.53;2.40;;;8.60;99.90;;;;;;5052863;28;20268;-84
2021/11/05 00:17:20;;;;;;;9.30;1.93;;;8.60;99.90;;;;;;5051295;28;20558;-83
2021/11/05 00:19:47;;;;;;;10.40;1.70;;;8.70;99.90;;;;;;5051891;28;20206;-86
2021/11/05 00:22:14;;;;;;;9.97;2.20;;;8.80;99.90;;;;;;5051424;28;20190;-86
2021/11/05 00:24:41;;;;;;;10.93;1.67;;;8.90;99.90;;;;;;5052385;28;20532;-85
2021/11/05 00:27:09;;;;;;;5.37;1.70;;;8.90;99.90;;;;;;5052020;28;20216;-86
2021/11/05 00:29:36;;;;;;;9.30;1.20;;;9.00;99.90;;;;;;5052006;28;20245;-84
2021/11/05 00:32:03;;;;;;;4.20;1.23;;;9.00;99.90;;;;;;5052380;28;20861;-85
2021/11/05 00:34:30;;;;;;;6.60;1.43;;;9.00;99.90;;;;;;5052873;28;20214;-88
2021/11/05 00:36:57;;;;;;;6.90;1.40;;;9.00;99.90;;;;;;5052580;28;20202;-89
2021/11/05 00:39:24;;;;;;;5.17;1.10;;;9.00;99.90;;;;;;5052610;28;20200;-88
2021/11/05 00:41:50;;;;;;;9.93;1.70;;;9.00;99.90;;;;;;5052943;28;20857;-86
2021/11/05 00:44:18;;;;;;;6.63;1.60;;;8.90;99.90;;;;;;5052371;28;20201;-88
2021/11/05 00:46:45;;;;;;;4.93;1.70;;;8.90;99.90;;;;;;5052912;28;20191;-88
2021/11/05 00:49:12;;;;;;;7.87;1.80;;;8.90;99.90;;;;;;5052468;28;20214;-83
2021/11/05 00:51:39;;;;;;;3.70;1.33;;;8.90;99.90;;;;;;5051599;28;20673;-89
2021/11/05 00:54:08;;;;;;;3.40;1.20;;;8.90;99.90;;;;;;5052190;28;20220;-89
2021/11/05 00:56:34;;;;;;;11.77;1.93;;;8.90;99.90;;;;;;5052262;28;20207;-87
2021/11/05 00:59:01;;;;;;;7.67;1.77;;;8.80;99.90;;;;;;5051546;28;20210;-89
2021/11/05 01:01:29;;;;;;;4.53;1.17;;;8.80;99.90;;;;;;5052536;28;20206;-88
2021/11/05 01:03:56;;;;;;;7.07;1.67;;;8.80;99.90;;;;;;5052623;28;20212;-91
2021/11/05 01:06:23;;;;;;;2.40;1.03;;;8.70;99.90;;;;;;5051828;28;20222;-89
2021/11/05 01:08:50;;;;;;;4.63;1.00;;;8.70;99.90;;;;;;5063737;28;20201;-82
2021/11/05 01:11:17;;;;;;;3.20;0.97;;;8.60;99.90;;;;;;5071767;28;20213;-87
2021/11/05 01:13:44;;;;;;;3.63;0.80;;;8.60;99.90;;;;;;5052286;28;20226;-85
2021/11/05 01:16:11;;;;;;;2.63;1.20;;;8.50;99.90;;;;;;5051686;28;20186;-85
2021/11/05 01:18:39;;;;;;;2.57;0.70;;;8.50;99.90;;;;;;5052204;28;20267;-85
2021/11/05 01:21:06;;;;;;;2.57;0.70;;;8.40;99.90;;;;;;5051915;28;20197;-88
2021/11/05 01:23:33;;;;;;;1.00;0.80;;;8.30;99.90;;;;;;5050864;28;20225;-84
2021/11/05 01:26:00;;;;;;;1.67;0.70;;;8.30;99.90;;;;;;5051575;28;20233;-87
2021/11/05 01:28:26;;;;;;;2.00;0.77;;;8.30;99.90;;;;;;5051260;28;20233;-88
2021/11/05 01:30:54;;;;;;;1.20;0.77;;;8.20;99.90;;;;;;5051951;28;20221;-84
2021/11/05 01:33:23;;;;;;;1.10;0.60;;;8.20;99.90;;;;;;5050894;28;20187;-89
2021/11/05 01:35:52;;;;;;;1.07;0.60;;;8.10;99.90;;;;;;5051225;28;20271;-89
2021/11/05 01:38:19;;;;;;;1.40;0.83;;;8.10;99.90;;;;;;5051151;28;20206;-83
2021/11/05 01:40:46;;;;;;;1.73;0.80;;;8.00;99.90;;;;;;5062817;28;20233;-85
2021/11/05 01:43:15;;;;;;;2.70;0.83;;;8.00;99.90;;;;;;5069524;28;20536;-90
2021/11/05 01:45:43;;;;;;;2.60;0.97;;;7.90;99.90;;;;;;5070100;28;20209;-85
2021/11/05 01:48:11;;;;;;;5.87;1.10;;;7.90;99.90;;;;;;5070729;28;20538;-88
2021/11/05 01:50:38;;;;;;;5.53;1.00;;;7.90;99.90;;;;;;5070290;28;20216;-84
2021/11/05 01:53:08;;;;;;;2.97;1.13;;;7.80;99.90;;;;;;5060692;28;20289;-83
2021/11/05 01:55:35;;;;;;;4.20;1.50;;;7.90;99.90;;;;;;5050909;28;20237;-90
2021/11/05 01:58:02;;;;;;;7.90;1.43;;;7.80;99.90;;;;;;5050827;28;20661;-85
2021/11/05 02:00:31;;;;;;;6.03;1.57;;;7.80;99.90;;;;;;5050940;28;20212;-85
2021/11/05 02:02:58;;;;;;;6.27;1.13;;;7.80;99.90;;;;;;5051299;28;20201;-88
2021/11/05 02:05:25;;;;;;;7.27;1.07;;;7.90;99.90;;;;;;5051821;28;20194;-89
2021/11/05 02:07:54;;;;;;;4.20;1.03;;;7.90;99.90;;;;;;5052137;28;20628;-87
2021/11/05 02:10:25;;;;;;;3.90;1.53;;;7.90;99.90;;;;;;5052479;28;20222;-85
2021/11/05 02:12:52;;;;;;;4.80;1.53;;;7.90;99.90;;;;;;5052965;28;20198;-86
2021/11/05 02:15:20;;;;;;;3.27;0.80;;;7.90;99.90;;;;;;5054544;28;20692;-85
2021/11/05 02:17:48;;;;;;;3.87;1.03;;;7.90;99.90;;;;;;5075459;28;20223;-82
2021/11/05 02:20:18;;;;;;;3.47;0.70;;;7.90;99.90;;;;;;5077839;28;20197;-87
2021/11/05 02:22:47;;;;;;;6.17;1.20;;;7.90;99.90;;;;;;5075294;28;20206;-84
2021/11/05 02:25:14;;;;;;;5.40;1.23;;;7.90;99.90;;;;;;5078294;28;20245;-86
2021/11/05 02:27:42;;;;;;;7.57;2.50;;;7.90;99.90;;;;;;5091591;28;20193;-89
2021/11/05 02:30:10;;;;;;;5.60;1.20;;;7.90;99.90;;;;;;5083589;28;20190;-89
2021/11/05 02:32:37;;;;;;;7.20;1.10;;;7.90;99.90;;;;;;5065956;28;20232;-83
2021/11/05 02:35:05;;;;;;;3.77;1.00;;;8.00;99.90;;;;;;5063020;28;20217;-87
2021/11/05 02:37:33;;;;;;;4.27;1.17;;;8.00;99.90;;;;;;5060976;28;20201;-88
2021/11/05 02:40:01;;;;;;;7.00;1.13;;;8.10;99.90;;;;;;5053210;28;20418;-89
2021/11/05 02:42:28;;;;;;;5.57;1.07;;;8.10;99.90;;;;;;5051348;28;20205;-88
2021/11/05 02:44:55;;;;;;;3.77;0.83;;;8.20;99.90;;;;;;5057687;28;20289;-89
2021/11/05 02:47:25;;;;;;;4.30;1.30;;;8.10;99.90;;;;;;5051867;28;20206;-88
2021/11/05 02:49:52;;;;;;;5.10;1.23;;;8.20;99.90;;;;;;5068992;28;20216;-83
2021/11/05 02:52:20;;;;;;;7.23;1.90;;;8.20;99.90;;;;;;5060502;28;20206;-84
2021/11/05 02:54:47;;;;;;;2.67;1.00;;;8.20;99.90;;;;;;5050110;28;20629;-83
2021/11/05 02:57:15;;;;;;;5.37;0.83;;;8.20;99.90;;;;;;5049155;28;20197;-86
2021/11/05 02:59:42;;;;;;;4.13;0.87;;;8.20;99.90;;;;;;5050068;28;20233;-87
2021/11/05 03:02:09;;;;;;;4.90;0.90;;;8.10;99.90;;;;;;5049666;28;20210;-89
2021/11/05 03:04:37;;;;;;;2.73;0.73;;;8.10;99.90;;;;;;5049070;28;20225;-88
2021/11/05 03:07:07;;;;;;;2.40;1.00;;;8.00;99.90;;;;;;5049478;28;20247;-90
2021/11/05 03:09:36;;;;;;;6.73;1.27;;;8.00;99.90;;;;;;5049514;28;20206;-88
2021/11/05 03:12:03;;;;;;;5.43;1.73;;;8.10;99.90;;;;;;5049426;28;20240;-85
2021/11/05 03:14:31;;;;;;;5.87;1.10;;;8.10;99.90;;;;;;5048567;28;20229;-88
2021/11/05 03:16:59;;;;;;;9.77;1.73;;;8.10;99.90;;;;;;5048920;28;20217;-88
2021/11/05 03:19:27;;;;;;;5.57;0.90;;;8.10;99.90;;;;;;5049488;28;20217;-85
2021/11/05 03:21:54;;;;;;;4.77;1.00;;;8.10;99.90;;;;;;5069751;28;20220;-84
2021/11/05 03:24:22;;;;;;;3.60;1.17;;;8.10;99.90;;;;;;5069284;28;20635;-87
2021/11/05 03:26:49;;;;;;;5.53;1.10;;;8.20;99.90;;;;;;5069486;28;20858;-87
2021/11/05 03:29:16;;;;;;;6.10;1.13;;;8.30;99.90;;;;;;5056817;28;20241;-85
2021/11/05 03:31:45;;;;;;;8.90;1.43;;;8.30;99.90;;;;;;5054100;28;20208;-83
2021/11/05 03:34:12;;;;;;;4.70;1.17;;;8.20;99.90;;;;;;5054472;28;20292;-90
2021/11/05 03:36:39;;;;;;;5.70;0.90;;;8.20;99.90;;;;;;5054408;28;20209;-89
2021/11/05 03:39:07;;;;;;;2.90;1.00;;;8.10;99.90;;;;;;5054270;28;20213;-89
2021/11/05 03:41:34;;;;;;;5.83;1.13;;;8.10;99.90;;;;;;5064180;28;20217;-89
2021/11/05 03:44:01;;;;;;;6.80;1.10;;;8.10;99.90;;;;;;5074046;28;20205;-85
2021/11/05 03:46:31;;;;;;;7.17;1.10;;;8.20;99.90;;;;;;5073503;28;20227;-88
2021/11/05 03:49:00;;;;;;;4.80;0.77;;;8.10;99.90;;;;;;5073460;28;20210;-88
2021/11/05 03:51:27;;;;;;;4.70;1.00;;;8.10;99.90;;;;;;5054190;28;20706;-89
2021/11/05 03:53:53;;;;;;;8.97;1.27;;;8.20;99.90;;;;;;5073769;28;20627;-85
2021/11/05 03:56:21;;;;;;;4.63;1.10;;;8.30;99.90;;;;;;5073904;28;20225;-90
2021/11/05 03:58:47;;;;;;;5.50;0.80;;;8.30;99.90;;;;;;5073201;28;20535;-86
2021/11/05 04:01:15;;;;;;;8.23;1.37;;;8.30;99.90;;;;;;5058057;28;20614;-90
2021/11/05 04:03:41;;;;;;;8.40;1.33;;;8.30;99.90;;;;;;5058376;28;20312;-85
2021/11/05 04:06:10;;;;;;;4.83;1.10;;;8.40;99.90;;;;;;5073990;28;20206;-88
2021/11/05 04:08:36;;;;;;;5.93;1.10;;;8.30;99.90;;;;;;5073038;28;20644;-85
2021/11/05 04:11:03;;;;;;;4.43;1.17;;;8.30;99.90;;;;;;5073331;28;20221;-89
2021/11/05 04:13:30;;;;;;;4.23;1.10;;;8.30;99.90;;;;;;5072885;28;20221;-89
2021/11/05 04:15:57;;;;;;;5.40;1.47;;;8.40;99.90;;;;;;5073322;28;20350;-89
2021/11/05 04:18:24;;;;;;;7.07;1.40;;;8.40;99.90;;;;;;5059885;28;20209;-87
2021/11/05 04:20:51;;;;;;;6.40;1.20;;;8.40;99.90;;;;;;5053747;28;20205;-85
2021/11/05 04:23:19;;;;;;;2.47;0.80;;;8.40;99.90;;;;;;5052930;28;20206;-83
2021/11/05 04:25:47;;;;;;;3.17;1.07;;;8.30;99.90;;;;;;5063935;28;20211;-87
2021/11/05 04:28:14;;;;;;;5.70;1.07;;;8.30;99.90;;;;;;5052274;28;20241;-88
2021/11/05 04:30:42;;;;;;;5.67;0.90;;;8.20;99.90;;;;;;5053832;28;20198;-90
2021/11/05 04:33:10;;;;;;;3.90;1.07;;;8.10;99.90;;;;;;5053111;28;20284;-84
2021/11/05 04:35:37;;;;;;;3.63;1.33;;;8.10;99.90;;;;;;5052141;28;20251;-91
2021/11/05 04:38:04;;;;;;;10.83;1.30;;;8.00;99.90;;;;;;5053332;28;20216;-90
2021/11/05 04:40:32;;;;;;;5.03;1.07;;;8.00;99.90;;;;;;5052631;28;20210;-89
2021/11/05 04:42:59;;;;;;;4.83;1.13;;;8.00;99.90;;;;;;5054919;28;20198;-90
2021/11/05 04:45:26;;;;;;;3.90;1.03;;;8.00;99.90;;;;;;5072221;28;20296;-90
2021/11/05 04:47:53;;;;;;;3.53;0.80;;;8.00;99.90;;;;;;5073133;28;20197;-90
2021/11/05 04:50:21;;;;;;;6.03;0.97;;;8.00;99.90;;;;;;5071946;28;20193;-86
2021/11/05 04:52:48;;;;;;;5.87;1.67;;;8.00;99.90;;;;;;5062654;28;20210;-86
2021/11/05 04:55:16;;;;;;;4.93;1.03;;;8.00;99.90;;;;;;5052616;28;20367;-89
2021/11/05 04:57:46;;;;;;;5.80;1.30;;;8.10;99.90;;;;;;5064759;28;20217;-86
2021/11/05 05:00:15;;;;;;;3.07;1.00;;;8.10;99.90;;;;;;5066459;28;20194;-88
2021/11/05 05:02:42;;;;;;;8.90;1.83;;;8.20;99.90;;;;;;5052508;28;20496;-84
2021/11/05 05:05:09;;;;;;;4.60;1.10;;;8.20;99.90;;;;;;5052294;28;20202;-91
2021/11/05 05:07:36;;;;;;;15.97;1.97;;;8.20;99.90;;;;;;5052106;28;20201;-86
2021/11/05 05:10:03;;;;;;;5.80;1.50;;;8.30;99.90;;;;;;5052146;28;20198;-89
2021/11/05 05:12:30;;;;;;;8.43;1.70;;;8.40;99.90;;;;;;5052256;28;20209;-88
2021/11/05 05:14:58;;;;;;;12.13;1.43;;;8.50;99.90;;;;;;5052807;28;20205;-84
2021/11/05 05:17:25;;;;;;;9.00;2.37;;;8.50;99.90;;;;;;5067037;28;20209;-88
2021/11/05 05:19:52;;;;;;;5.77;1.10;;;8.60;99.90;;;;;;5072471;28;20189;-87
2021/11/05 05:22:19;;;;;;;3.80;1.10;;;8.60;99.90;;;;;;5072144;28;20212;-88
2021/11/05 05:24:46;;;;;;;7.13;1.90;;;8.60;99.90;;;;;;5071574;28;20201;-83
2021/11/05 05:27:13;;;;;;;7.63;1.20;;;8.60;99.90;;;;;;5072538;28;20201;-89
2021/11/05 05:29:40;;;;;;;8.57;1.03;;;8.70;99.90;;;;;;5072400;28;20233;-89
2021/11/05 05:32:09;;;;;;;9.90;1.40;;;8.70;99.90;;;;;;5066673;28;20194;-82
2021/11/05 05:34:36;;;;;;;7.77;1.80;;;8.70;99.90;;;;;;5052136;28;20208;-88
2021/11/05 05:37:03;;;;;;;6.27;1.50;;;8.70;99.90;;;;;;5052396;28;20660;-88
2021/11/05 05:39:29;;;;;;;7.17;1.33;;;8.70;99.90;;;;;;5052235;28;20206;-86
2021/11/05 05:41:56;;;;;;;5.00;1.30;;;8.60;99.90;;;;;;5052911;28;20213;-90
2021/11/05 05:44:23;;;;;;;10.23;1.20;;;8.60;99.90;;;;;;5052466;28;20210;-88
2021/11/05 05:46:50;;;;;;;8.60;1.53;;;8.60;99.90;;;;;;5054369;28;20198;-86
2021/11/05 05:49:18;;;;;;;4.37;1.33;;;8.70;99.90;;;;;;5064665;28;20209;-90
2021/11/05 05:51:45;;;;;;;8.13;1.60;;;8.80;99.90;;;;;;5072130;28;20209;-91
2021/11/05 05:54:12;;;;;;;6.73;1.30;;;8.80;99.90;;;;;;5071780;28;20193;-86
2021/11/05 05:56:39;;;;;;;3.70;0.97;;;8.70;99.90;;;;;;5052038;28;20237;-85
2021/11/05 05:59:06;;;;;;;7.07;1.30;;;8.70;99.90;;;;;;5051358;28;20206;-90
2021/11/05 06:01:33;;;;;;;3.63;0.93;;;8.60;99.90;;;;;;5051511;28;20212;-88
2021/11/05 06:04:01;;;;;;;5.57;1.30;;;8.60;99.90;;;;;;5056292;28;20200;-90
2021/11/05 06:06:30;;;;;;;5.73;1.40;;;8.50;99.90;;;;;;5070844;28;20312;-81
2021/11/05 06:08:57;;;;;;;2.40;0.73;;;8.50;99.90;;;;;;5071623;28;20216;-91
2021/11/05 06:11:24;;;;;;;4.90;1.40;;;8.50;99.90;;;;;;5068761;28;20225;-89
2021/11/05 06:13:51;;;;;;;3.87;1.07;;;8.40;99.90;;;;;;5051476;28;20194;-89
2021/11/05 06:16:19;;;;;;;5.50;1.70;;;8.40;99.90;;;;;;5051406;28;20233;-90
2021/11/05 06:18:47;;;;;;;6.83;1.37;;;8.30;99.90;;;;;;5051937;28;20216;-91
2021/11/05 06:21:13;;;;;;;12.90;2.03;;;8.30;99.90;;;;;;5051502;28;20186;-89
2021/11/05 06:23:42;;;;;;;13.43;1.93;;;8.30;99.90;;;;;;5055319;28;21969;-89
2021/11/05 06:26:09;;;;;;;9.70;1.60;;;8.30;99.90;;;;;;5071388;28;20202;-88
2021/11/05 06:28:35;;;;;;;6.03;1.37;;;8.30;99.90;;;;;;5070297;28;20636;-83
2021/11/05 06:31:02;;;;;;;4.60;1.33;;;8.40;99.90;;;;;;5053234;28;20586;-88
2021/11/05 06:33:29;;;;;;;5.90;1.50;;;8.30;99.90;;;;;;5050893;28;20212;-90
2021/11/05 06:35:56;;;;;;;7.77;1.90;;;8.40;99.90;;;;;;5051461;28;20226;-87
2021/11/05 06:38:24;;;;;;;5.87;1.30;;;8.40;99.90;;;;;;5050855;28;20210;-90
2021/11/05 06:40:53;;;;;;;3.40;1.00;;;8.40;99.90;;;;;;5051375;28;20289;-88
2021/11/05 06:43:21;;;;;;;3.93;1.00;;;8.30;99.90;;;;;;5051099;28;20516;-85
2021/11/05 06:45:48;;;;;;;3.40;0.83;;;8.30;99.90;;;;;;5050500;28;20198;-85
2021/11/05 06:48:15;;;;;;;3.43;0.87;;;8.20;99.90;;;;;;5049857;28;20202;-84
2021/11/05 06:50:42;;;;;;;3.93;1.13;;;8.20;99.90;;;;;;5050501;28;20210;-87
2021/11/05 06:53:10;;;;;;;5.43;1.37;;;8.10;99.90;;;;;;5051357;28;20202;-89
2021/11/05 06:55:37;;;;;;;6.47;0.90;;;8.10;99.90;;;;;;5049509;28;20232;-84
2021/11/05 06:58:07;;;;;;;5.00;1.53;;;8.10;99.90;;;;;;5050401;28;20221;-90
2021/11/05 07:00:40;;;;;;;8.07;2.00;;;8.10;99.90;;;;;;5050747;28;20228;-90
2021/11/05 07:03:06;;;;;;;4.67;1.67;;;8.10;99.90;;;;;;5050400;28;20229;-83
2021/11/05 07:05:34;;;;;;;4.90;1.47;;;8.00;99.90;;;;;;5049747;28;20206;-84
2021/11/05 07:08:01;;;;;;;6.43;1.77;;;8.10;99.90;;;;;;5050858;28;20201;-90
2021/11/05 07:10:28;;;;;;;5.33;1.77;;;8.00;99.90;;;;;;5050609;28;20511;-89
2021/11/05 07:12:55;;;;;;;4.60;1.33;;;8.00;99.90;;;;;;5051659;28;20209;-86
2021/11/05 07:17:51;;;;;;;6.07;1.20;;;8.00;99.90;;;;;;5055005;22;20238;-90
2021/11/05 07:20:18;;;;;;;5.70;1.30;;;8.00;99.90;;;;;;5050087;28;20194;-91
2021/11/05 07:22:46;;;;;;;5.83;1.50;;;8.00;99.90;;;;;;5041397;28;20218;-88
2021/11/05 07:25:15;;;;;;;3.33;1.57;;;8.00;99.90;;;;;;5038404;28;20197;-81
2021/11/05 07:27:43;;;;;;;5.13;1.33;;;8.00;99.90;;;;;;5050463;28;20214;-81
2021/11/05 07:30:12;;;;;;;5.13;1.10;;;8.00;99.90;;;;;;5043502;28;20260;-89
2021/11/05 07:32:44;;;;;;;5.80;1.33;;;8.10;99.90;;;;;;5030512;28;20194;-90
2021/11/05 07:35:13;;;;;;;8.53;1.20;;;8.20;99.90;;;;;;5031426;28;20455;-87
2021/11/05 07:37:39;;;;;;;5.43;1.13;;;8.20;99.90;;;;;;5029876;28;20229;-84
2021/11/05 07:40:08;;;;;;;7.93;1.43;;;8.30;99.90;;;;;;5029612;28;20218;-88
2021/11/05 07:42:36;;;;;;;5.13;1.23;;;8.40;99.90;;;;;;5030956;28;20195;-89
2021/11/05 07:45:05;;;;;;;7.47;1.97;;;8.50;99.90;;;;;;5030502;28;20214;-86
2021/11/05 07:47:32;;;;;;;7.80;1.40;;;8.60;99.90;;;;;;5029598;28;20606;-85
2021/11/05 07:49:59;;;;;;;7.20;1.47;;;8.70;99.90;;;;;;5031679;28;20206;-88
2021/11/05 07:52:28;;;;;;;8.20;1.40;;;8.70;99.90;;;;;;5029415;28;20209;-89
2021/11/05 07:54:55;;;;;;;5.80;1.40;;;8.80;99.90;;;;;;5030885;28;20215;-87
2021/11/05 07:57:21;;;;;;;7.60;1.80;;;8.90;99.90;;;;;;5029876;28;20222;-81
2021/11/05 07:59:48;;;;;;;5.77;1.20;;;9.00;99.90;;;;;;5027647;28;20206;-84
2021/11/05 08:02:44;;;;;;;5.60;1.00;;;9.10;99.90;;;;;;4994234;28;20452;-87
2021/11/05 08:05:11;;;;;;;8.97;1.97;;;9.10;99.90;;;;;;5030270;28;20206;-89
2021/11/05 08:07:40;;;;;;;7.30;1.30;;;9.20;99.90;;;;;;5029368;28;20228;-90
2021/11/05 08:10:09;;;;;;;10.30;1.43;;;9.20;99.90;;;;;;5047867;28;20236;-88
2021/11/05 08:12:36;;;;;;;6.73;1.17;;;9.30;99.90;;;;;;5050013;28;20197;-86
2021/11/05 08:15:04;;;;;;;9.87;2.17;;;9.40;99.90;;;;;;5049561;28;20201;-87
2021/11/05 08:17:38;;;;;;;5.63;1.40;;;9.50;99.90;;;;;;5034193;28;20322;-86
2021/11/05 08:20:06;;;;;;;8.43;1.50;;;9.70;99.90;;;;;;5034406;28;20209;-87
2021/11/05 08:22:32;;;;;;;6.37;1.90;;;9.70;99.90;;;;;;5033790;28;20282;-88
2021/11/05 08:25:01;;;;;;;10.90;2.20;;;9.80;99.90;;;;;;5034812;28;20203;-87
2021/11/05 08:27:28;;;;;;;10.83;1.57;;;10.00;99.90;;;;;;5034217;28;20221;-87
2021/11/05 08:29:54;;;;;;;6.03;1.60;;;10.00;99.90;;;;;;5033933;28;20214;-86
2021/11/05 08:32:21;;;;;;;6.43;1.50;;;10.00;99.90;;;;;;5033807;28;20512;-87
2021/11/05 08:34:48;;;;;;;3.60;1.00;;;10.10;99.90;;;;;;5034139;28;20203;-88
2021/11/05 08:37:15;;;;;;;3.93;1.07;;;10.10;99.90;;;;;;5033293;28;20218;-86
2021/11/05 08:39:42;;;;;;;4.83;1.07;;;10.20;99.90;;;;;;5033831;28;20573;-88
2021/11/05 08:42:10;;;;;;;11.50;1.97;;;10.10;99.90;;;;;;5036941;28;20209;-86
2021/11/05 08:44:37;;;;;;;7.50;1.50;;;10.20;99.90;;;;;;5053771;28;20210;-85
2021/11/05 08:47:04;;;;;;;5.77;1.13;;;10.30;99.90;;;;;;5053204;28;20281;-84
2021/11/05 08:49:31;;;;;;;6.30;1.00;;;10.40;99.90;;;;;;5034956;28;20210;-87
2021/11/05 08:51:58;;;;;;;7.57;1.50;;;10.60;99.90;;;;;;5048890;22;20241;-87
2021/11/05 08:54:26;;;;;;;11.97;1.87;;;10.70;99.90;;;;;;5043968;28;20296;-86
2021/11/05 08:56:53;;;;;;;3.73;1.00;;;10.80;99.90;;;;;;5033096;28;20313;-85
2021/11/05 08:59:23;;;;;;;3.37;0.93;;;10.80;99.90;;;;;;5033316;28;20495;-87
2021/11/05 09:01:51;;;;;;;3.10;0.90;;;10.90;99.90;;;;;;5033277;28;20198;-84
2021/11/05 09:04:18;;;;;;;5.33;1.20;;;11.00;99.90;;;;;;5032762;28;20240;-85
2021/11/05 09:06:46;;;;;;;5.80;1.20;;;11.10;99.90;;;;;;5033393;28;20269;-85
2021/11/05 09:09:13;;;;;;;5.43;1.67;;;11.20;99.90;;;;;;5032862;28;20194;-83
2021/11/05 09:11:40;;;;;;;1.80;0.80;;;11.20;99.90;;;;;;5032236;28;20648;-83
2021/11/05 09:14:07;;;;;;;2.90;0.80;;;11.30;99.90;;;;;;5033022;28;20214;-84
2021/11/05 09:16:36;;;;;;;2.90;1.10;;;11.40;99.90;;;;;;5031993;28;20229;-85
2021/11/05 09:19:03;;;;;;;2.37;1.00;;;11.40;99.90;;;;;;5032047;28;20210;-81
2021/11/05 09:21:31;;;;;;;6.20;0.77;;;11.30;99.90;;;;;;5031931;28;20222;-85
2021/11/05 09:23:58;;;;;;;2.20;0.60;;;11.30;99.90;;;;;;5031211;28;20252;-87
2021/11/05 09:26:26;;;;;;;5.47;0.90;;;11.20;99.90;;;;;;5048247;28;20482;-84
2021/11/05 09:28:53;;;;;;;5.03;1.13;;;11.20;99.90;;;;;;5051727;28;20202;-88
2021/11/05 09:31:20;;;;;;;4.10;0.90;;;11.20;99.90;;;;;;5051184;28;20503;-84
2021/11/05 09:33:48;;;;;;;3.77;0.90;;;11.20;99.90;;;;;;5036240;28;20210;-85
2021/11/05 09:36:16;;;;;;;4.33;1.10;;;11.10;99.90;;;;;;5031919;28;20621;-84
2021/11/05 09:38:43;;;;;;;6.73;1.17;;;11.10;99.90;;;;;;5031347;28;20245;-84
2021/11/05 09:41:10;;;;;;;6.40;1.10;;;11.10;99.90;;;;;;5030965;28;20207;-83
2021/11/05 09:43:40;;;;;;;6.03;1.20;;;11.00;99.90;;;;;;5031242;28;20211;-80
2021/11/05 09:46:07;;;;;;;3.90;1.50;;;10.90;99.90;;;;;;5029143;28;20202;-81
2021/11/05 09:48:37;;;;;;;9.00;1.73;;;10.90;99.90;;;;;;5029456;28;20210;-82
2021/11/05 09:51:06;;;;;;;8.07;1.30;;;10.90;99.90;;;;;;5046243;28;20205;-84
2021/11/05 09:53:36;;;;;;;7.17;1.20;;;11.00;99.90;;;;;;5050269;28;20474;-83
2021/11/05 09:56:05;;;;;;;4.40;0.80;;;11.10;99.90;;;;;;5045423;28;20210;-84
2021/11/05 09:58:31;;;;;;;5.43;1.20;;;11.20;99.90;;;;;;5029129;28;20222;-82
2021/11/05 10:00:58;;;;;;;8.20;1.00;;;11.40;99.90;;;;;;5028666;28;20631;-84
2021/11/05 10:03:26;;;;;;;5.17;1.00;;;11.50;99.90;;;;;;5029684;28;20210;-83
2021/11/05 10:05:54;;;;;;;10.17;1.13;;;11.70;99.90;;;;;;5028626;28;20869;-83
2021/11/05 10:08:31;;;;;;;7.93;2.03;;;11.70;99.90;;;;;;5028093;28;20210;-81
2021/11/05 10:10:59;;;;;;;7.63;1.27;;;11.80;99.90;;;;;;5028109;28;20275;-82
2021/11/05 10:13:26;;;;;;;5.53;1.27;;;11.90;99.90;;;;;;5026262;28;20203;-82
2021/11/05 10:15:56;;;;;;;9.50;1.43;;;12.00;99.90;;;;;;5027721;28;20210;-83
2021/11/05 10:18:25;;;;;;;6.20;1.30;;;12.10;99.90;;;;;;5026446;28;20218;-81
2021/11/05 10:21:09;;;;;;;6.23;1.30;;;12.10;99.90;;;;;;5042386;28;20944;-80
2021/11/05 10:23:38;;;;;;;6.10;2.07;;;12.10;99.90;;;;;;5046948;28;20197;-82
2021/11/05 10:26:06;;;;;;;4.53;1.00;;;12.10;99.90;;;;;;5043672;28;20831;-83
2021/11/05 10:28:37;;;;;;;4.20;1.00;;;12.10;99.90;;;;;;5025408;28;20642;-83
2021/11/05 10:31:06;;;;;;;7.00;1.10;;;12.10;99.90;;;;;;5028397;28;20940;-80
2021/11/05 10:33:37;;;;;;;4.33;1.77;;;12.10;99.90;;;;;;5046809;28;20205;-80
2021/11/05 10:36:06;;;;;;;4.90;1.03;;;12.20;99.90;;;;;;5046914;28;20206;-83
2021/11/05 10:38:36;;;;;;;5.53;1.10;;;12.20;99.90;;;;;;5041308;28;20230;-82
2021/11/05 10:41:07;;;;;;;8.10;1.20;;;12.20;99.90;;;;;;5027412;28;20272;-81
2021/11/05 10:43:40;;;;;;;4.70;1.00;;;12.30;99.90;;;;;;5028455;28;20202;-80
2021/11/05 10:46:09;;;;;;;5.70;1.07;;;12.30;99.90;;;;;;5029401;28;20513;-82
2021/11/05 10:48:39;;;;;;;6.47;2.30;;;12.40;99.90;;;;;;5046832;28;20206;-83
2021/11/05 10:51:08;;;;;;;7.47;1.63;;;12.30;99.90;;;;;;5036025;28;20214;-85
2021/11/05 10:53:36;;;;;;;7.67;1.20;;;12.30;99.90;;;;;;5028159;28;20202;-81
2021/11/05 10:56:06;;;;;;;6.20;0.80;;;12.40;99.90;;;;;;5028502;28;20230;-82
2021/11/05 10:58:35;;;;;;;7.63;1.37;;;12.40;99.90;;;;;;5027980;28;20257;-83
2021/11/05 11:01:05;;;;;;;6.43;1.13;;;12.50;99.90;;;;;;5046896;28;20209;-83
2021/11/05 11:03:33;;;;;;;10.10;1.33;;;12.50;99.90;;;;;;5035455;28;20206;-84
2021/11/05 11:06:05;;;;;;;6.13;1.00;;;12.50;99.90;;;;;;5046079;28;20206;-83
2021/11/05 11:08:34;;;;;;;6.47;1.60;;;12.60;99.90;;;;;;5031224;28;20187;-84
2021/11/05 11:11:14;;;;;;;1.77;0.80;;;12.70;99.90;;;;;;5030066;28;20226;-83
2021/11/05 11:13:42;;;;;;;5.63;1.47;;;12.60;99.90;;;;;;5031058;28;20206;-84
2021/11/05 11:16:10;;;;;;;2.90;1.10;;;12.70;99.90;;;;;;5030189;28;20207;-83
2021/11/05 11:18:54;;;;;;;6.40;1.33;;;12.80;99.90;;;;;;5030814;28;20229;-93
2021/11/05 11:21:22;;;;;;;3.17;1.13;;;12.80;99.90;;;;;;5030662;28;20206;-85
2021/11/05 11:23:49;;;;;;;3.67;1.00;;;12.80;99.90;;;;;;5030388;28;20206;-84
2021/11/05 11:26:19;;;;;;;5.97;1.00;;;12.80;99.90;;;;;;5045784;28;20194;-87
2021/11/05 11:28:46;;;;;;;7.67;0.93;;;12.80;99.90;;;;;;5039711;28;20864;-83
2021/11/05 11:31:15;;;;;;;2.83;0.80;;;12.80;99.90;;;;;;5029605;28;20191;-86
2021/11/05 11:33:42;;;;;;;4.23;0.80;;;12.80;99.90;;;;;;5030452;28;20310;-85
2021/11/05 11:36:11;;;;;;;4.00;0.80;;;12.80;99.90;;;;;;5028711;28;20204;-86
2021/11/05 11:38:39;;;;;;;5.13;1.43;;;12.80;99.90;;;;;;5028700;28;20226;-83
2021/11/05 11:41:08;;;;;;;6.53;1.27;;;12.80;99.90;;;;;;5030654;28;20210;-84
2021/11/05 11:43:37;;;;;;;7.97;1.23;;;12.80;99.90;;;;;;5041486;28;20620;-84
2021/11/05 11:46:05;;;;;;;4.77;0.87;;;12.80;99.90;;;;;;5047247;28;20202;-84
2021/11/05 11:48:37;;;;;;;6.20;1.50;;;12.80;99.90;;;;;;5047274;28;20202;-82
2021/11/05 11:51:33;;;;;;;5.23;1.07;;;12.90;99.90;;;;;;5050856;28;20210;-82
2021/11/05 11:54:03;;;;;;;3.83;0.90;;;13.00;99.90;;;;;;5016027;28;20208;-81
2021/11/05 11:56:33;;;;;;;7.97;1.03;;;13.00;99.90;;;;;;5044211;28;20221;-81
2021/11/05 11:59:04;;;;;;;7.17;1.63;;;12.90;99.90;;;;;;5051320;28;20217;-83
2021/11/05 12:01:35;;;;;;;4.33;1.20;;;12.90;99.90;;;;;;5051539;28;20198;-82
2021/11/05 12:04:04;;;;;;;3.43;1.10;;;12.80;99.90;;;;;;5051952;28;20224;-84
2021/11/05 12:07:01;;;;;;;3.73;0.90;;;12.90;99.90;;;;;;5049289;28;20221;-84
2021/11/05 12:09:30;;;;;;;6.50;0.90;;;12.90;99.90;;;;;;5040094;28;20218;-85
2021/11/05 12:12:31;;;;;;;1.97;0.70;;;12.90;99.90;;;;;;5031942;28;20237;-84
2021/11/05 12:15:14;;;;;;;6.00;0.90;;;12.90;99.90;;;;;;5030488;28;20287;-81
2021/11/05 12:18:10;;;;;;;2.87;0.60;;;12.90;99.90;;;;;;5030612;28;20662;-83
2021/11/05 12:20:43;;;;;;;6.60;1.17;;;12.90;99.90;;;;;;5029978;28;20453;-82
2021/11/05 12:23:18;;;;;;;4.17;1.23;;;13.00;99.90;;;;;;5031849;28;20207;-83
2021/11/05 12:25:47;;;;;;;7.40;1.43;;;13.00;99.90;;;;;;5031727;28;20198;-84
2021/11/05 12:28:17;;;;;;;2.50;0.83;;;13.00;99.90;;;;;;5029778;28;20209;-81
2021/11/05 12:30:46;;;;;;;4.63;1.17;;;12.90;99.90;;;;;;5028827;28;20827;-84
2021/11/05 12:33:29;;;;;;;9.10;1.13;;;12.80;99.90;;;;;;5031487;28;20623;-81
2021/11/05 12:35:57;;;;;;;4.33;1.80;;;12.70;99.90;;;;;;5030618;28;20997;-82
2021/11/05 12:38:23;;;;;;;6.67;0.80;;;12.60;99.90;;;;;;5029746;28;20226;-84
2021/11/05 12:40:57;;;;;;;7.43;1.10;;;12.60;99.90;;;;;;5029184;28;20199;-80
2021/11/05 12:43:46;;;;;;;5.47;1.27;;;12.60;99.90;;;;;;5029352;28;20207;-81
2021/11/05 12:46:21;;;;;;;3.23;0.73;;;12.60;99.90;;;;;;5030277;28;20527;-82
2021/11/05 12:48:54;;;;;;;4.87;1.40;;;12.60;99.90;;;;;;5037655;28;20593;-81
2021/11/05 12:51:23;;;;;;;4.83;1.17;;;12.70;99.90;;;;;;5049651;28;20672;-83
2021/11/05 20:34:03;;;;;;;6.80;2.23;;;10.80;99.90;;;;;;1862838;22;20613;-79
2021/11/05 20:36:31;;;;;;;7.43;1.90;;;10.70;99.90;;;;;;5024971;28;20413;-79
2021/11/05 20:38:58;;;;;;;9.93;2.53;;;10.80;99.90;;;;;;5009412;28;20249;-80
2021/11/05 20:41:27;;;;;;;6.00;2.03;;;10.80;99.90;;;;;;5009060;28;20218;-82